sensor_id;sensor_type;location;lat;lon;timestamp;temperature;humidity
23259;DHT22;11798;51.528;7.240;2022-09-09T00:04:34;15.80;99.90
23259;DHT22;11798;51.528;7.240;2022-09-09T00:07:04;15.70;99.90
23259;DHT22;11798;51.528;7.240;2022-09-09T00:09:58;15.80;99.90
23259;DHT22;11798;51.528;7.240;2022-09-09T00:12:34;15.70;99.90
23259;DHT22;11798;51.528;7.240;2022-09-09T00:15:02;15.70;99.90
23259;DHT22;11798;51.528;7.240;2022-09-09T00:20:18;15.60;99.90
23259;DHT22;11798;51.528;7.240;2022-09-09T00:22:54;15.60;99.90
23259;DHT22;11798;51.528;7.240;2022-09-09T00:25:30;15.60;99.90
23259;DHT22;11798;51.528;7.240;2022-09-09T00:27:57;15.50;99.90
23259;DHT22;11798;51.528;7.240;2022-09-09T00:30:34;15.60;99.90
23259;DHT22;11798;51.528;7.240;2022-09-09T00:33:12;15.60;99.90
23259;DHT22;11798;51.528;7.240;2022-09-09T00:35:57;15.50;99.90
23259;DHT22;11798;51.528;7.240;2022-09-09T00:38:33;15.50;99.90
23259;DHT22;11798;51.528;7.240;2022-09-09T00:41:22;15.50;99.90
23259;DHT22;11798;51.528;7.240;2022-09-09T00:44:25;15.60;99.90
23259;DHT22;11798;51.528;7.240;2022-09-09T00:47:02;15.50;99.90
23259;DHT22;11798;51.528;7.240;2022-09-09T00:57:40;15.60;99.90
23259;DHT22;11798;51.528;7.240;2022-09-09T01:08:01;15.60;99.90
23259;DHT22;11798;51.528;7.240;2022-09-09T01:10:46;15.60;99.90
23259;DHT22;11798;51.528;7.240;2022-09-09T01:13:24;15.60;99.90
23259;DHT22;11798;51.528;7.240;2022-09-09T01:15:50;15.50;99.90
23259;DHT22;11798;51.528;7.240;2022-09-09T01:18:21;15.50;99.90
23259;DHT22;11798;51.528;7.240;2022-09-09T01:21:48;15.50;99.90
23259;DHT22;11798;51.528;7.240;2022-09-09T01:24:27;15.50;99.90
23259;DHT22;11798;51.528;7.240;2022-09-09T01:27:01;15.60;99.90
23259;DHT22;11798;51.528;7.240;2022-09-09T01:29:29;15.60;99.90
23259;DHT22;11798;51.528;7.240;2022-09-09T01:32:00;15.50;99.90
23259;DHT22;11798;51.528;7.240;2022-09-09T01:37:06;15.40;99.90
23259;DHT22;11798;51.528;7.240;2022-09-09T01:39:36;15.50;99.90
23259;DHT22;11798;51.528;7.240;2022-09-09T01:42:05;15.40;99.90
23259;DHT22;11798;51.528;7.240;2022-09-09T01:44:31;15.40;99.90
23259;DHT22;11798;51.528;7.240;2022-09-09T01:46:57;15.40;99.90
23259;DHT22;11798;51.528;7.240;2022-09-09T01:49:23;15.40;99.90
23259;DHT22;11798;51.528;7.240;2022-09-09T01:51:52;15.40;99.90
23259;DHT22;11798;51.528;7.240;2022-09-09T01:54:20;15.40;99.90
23259;DHT22;11798;51.528;7.240;2022-09-09T02:05:36;15.40;99.90
23259;DHT22;11798;51.528;7.240;2022-09-09T02:11:03;15.50;99.90
23259;DHT22;11798;51.528;7.240;2022-09-09T02:13:32;15.50;99.90
23259;DHT22;11798;51.528;7.240;2022-09-09T02:21:16;15.60;99.90
23259;DHT22;11798;51.528;7.240;2022-09-09T02:23:43;15.60;99.90
23259;DHT22;11798;51.528;7.240;2022-09-09T02:26:11;15.50;99.90
23259;DHT22;11798;51.528;7.240;2022-09-09T02:28:40;15.50;99.90
23259;DHT22;11798;51.528;7.240;2022-09-09T02:31:06;15.50;99.90
23259;DHT22;11798;51.528;7.240;2022-09-09T02:33:44;15.50;99.90
23259;DHT22;11798;51.528;7.240;2022-09-09T02:36:11;15.50;99.90
23259;DHT22;11798;51.528;7.240;2022-09-09T02:38:43;15.50;99.90
23259;DHT22;11798;51.528;7.240;2022-09-09T02:41:11;15.50;99.90
23259;DHT22;11798;51.528;7.240;2022-09-09T02:43:36;15.50;99.90
23259;DHT22;11798;51.528;7.240;2022-09-09T02:46:33;15.50;99.90
23259;DHT22;11798;51.528;7.240;2022-09-09T02:52:06;15.50;99.90
23259;DHT22;11798;51.528;7.240;2022-09-09T02:57:12;15.60;99.90
23259;DHT22;11798;51.528;7.240;2022-09-09T02:59:40;15.60;99.90
23259;DHT22;11798;51.528;7.240;2022-09-09T03:02:07;15.70;99.90
23259;DHT22;11798;51.528;7.240;2022-09-09T03:04:32;15.60;99.90
23259;DHT22;11798;51.528;7.240;2022-09-09T03:06:58;15.60;99.90
23259;DHT22;11798;51.528;7.240;2022-09-09T03:09:24;15.60;99.90
23259;DHT22;11798;51.528;7.240;2022-09-09T03:11:51;15.70;99.90
23259;DHT22;11798;51.528;7.240;2022-09-09T03:14:17;15.70;99.90
23259;DHT22;11798;51.528;7.240;2022-09-09T03:16:46;15.90;99.90
23259;DHT22;11798;51.528;7.240;2022-09-09T03:19:12;15.70;99.90
23259;DHT22;11798;51.528;7.240;2022-09-09T03:21:39;15.70;99.90
23259;DHT22;11798;51.528;7.240;2022-09-09T03:24:05;15.60;99.90
23259;DHT22;11798;51.528;7.240;2022-09-09T03:26:32;15.70;99.90
23259;DHT22;11798;51.528;7.240;2022-09-09T03:28:57;15.70;99.90
23259;DHT22;11798;51.528;7.240;2022-09-09T03:31:25;15.60;99.90
23259;DHT22;11798;51.528;7.240;2022-09-09T03:33:51;15.60;99.90
23259;DHT22;11798;51.528;7.240;2022-09-09T03:36:17;15.60;99.90
23259;DHT22;11798;51.528;7.240;2022-09-09T03:38:42;15.60;99.90
23259;DHT22;11798;51.528;7.240;2022-09-09T03:41:08;15.50;99.90
23259;DHT22;11798;51.528;7.240;2022-09-09T03:43:34;15.60;99.90
23259;DHT22;11798;51.528;7.240;2022-09-09T03:45:59;15.60;99.90
23259;DHT22;11798;51.528;7.240;2022-09-09T03:48:26;15.50;99.90
23259;DHT22;11798;51.528;7.240;2022-09-09T03:50:54;15.50;99.90
23259;DHT22;11798;51.528;7.240;2022-09-09T03:53:24;15.40;99.90
23259;DHT22;11798;51.528;7.240;2022-09-09T03:55:53;15.40;99.90
23259;DHT22;11798;51.528;7.240;2022-09-09T03:58:23;15.40;99.90
23259;DHT22;11798;51.528;7.240;2022-09-09T04:01:03;15.40;99.90
23259;DHT22;11798;51.528;7.240;2022-09-09T04:03:29;15.30;99.90
23259;DHT22;11798;51.528;7.240;2022-09-09T04:05:57;15.30;99.90
23259;DHT22;11798;51.528;7.240;2022-09-09T04:08:23;15.30;99.90
23259;DHT22;11798;51.528;7.240;2022-09-09T04:10:52;15.30;99.90
23259;DHT22;11798;51.528;7.240;2022-09-09T04:13:19;15.30;99.90
23259;DHT22;11798;51.528;7.240;2022-09-09T04:15:51;15.40;99.90
23259;DHT22;11798;51.528;7.240;2022-09-09T04:18:17;15.30;99.90
23259;DHT22;11798;51.528;7.240;2022-09-09T04:20:44;15.40;99.90
23259;DHT22;11798;51.528;7.240;2022-09-09T04:23:10;15.40;99.90
23259;DHT22;11798;51.528;7.240;2022-09-09T04:25:37;15.40;99.90
23259;DHT22;11798;51.528;7.240;2022-09-09T04:28:03;15.40;99.90
23259;DHT22;11798;51.528;7.240;2022-09-09T04:30:29;15.40;99.90
23259;DHT22;11798;51.528;7.240;2022-09-09T04:32:54;15.40;99.90
23259;DHT22;11798;51.528;7.240;2022-09-09T04:35:20;15.40;99.90
23259;DHT22;11798;51.528;7.240;2022-09-09T04:37:46;15.50;99.90
23259;DHT22;11798;51.528;7.240;2022-09-09T04:40:11;15.50;99.90
23259;DHT22;11798;51.528;7.240;2022-09-09T04:42:37;15.40;99.90
23259;DHT22;11798;51.528;7.240;2022-09-09T04:45:04;15.40;99.90
23259;DHT22;11798;51.528;7.240;2022-09-09T04:47:30;15.40;99.90
23259;DHT22;11798;51.528;7.240;2022-09-09T04:49:55;15.40;99.90
23259;DHT22;11798;51.528;7.240;2022-09-09T04:52:22;15.40;99.90
23259;DHT22;11798;51.528;7.240;2022-09-09T04:54:47;15.40;99.90
23259;DHT22;11798;51.528;7.240;2022-09-09T04:57:13;15.30;99.90
23259;DHT22;11798;51.528;7.240;2022-09-09T04:59:39;15.40;99.90
23259;DHT22;11798;51.528;7.240;2022-09-09T05:02:05;15.40;99.90
23259;DHT22;11798;51.528;7.240;2022-09-09T05:04:31;15.40;99.90
23259;DHT22;11798;51.528;7.240;2022-09-09T05:06:56;15.40;99.90
23259;DHT22;11798;51.528;7.240;2022-09-09T05:09:22;15.40;99.90
23259;DHT22;11798;51.528;7.240;2022-09-09T05:11:48;15.40;99.90
23259;DHT22;11798;51.528;7.240;2022-09-09T05:14:14;15.40;99.90
23259;DHT22;11798;51.528;7.240;2022-09-09T05:16:40;15.50;99.90
23259;DHT22;11798;51.528;7.240;2022-09-09T05:19:06;15.50;99.90
23259;DHT22;11798;51.528;7.240;2022-09-09T05:21:33;15.70;99.90
23259;DHT22;11798;51.528;7.240;2022-09-09T05:23:59;15.60;99.90
23259;DHT22;11798;51.528;7.240;2022-09-09T05:26:25;15.70;99.90
23259;DHT22;11798;51.528;7.240;2022-09-09T05:28:51;15.70;99.90
23259;DHT22;11798;51.528;7.240;2022-09-09T05:31:18;15.70;99.90
23259;DHT22;11798;51.528;7.240;2022-09-09T05:33:46;15.70;99.90
23259;DHT22;11798;51.528;7.240;2022-09-09T05:36:15;15.70;99.90
23259;DHT22;11798;51.528;7.240;2022-09-09T05:38:42;15.80;99.90
23259;DHT22;11798;51.528;7.240;2022-09-09T05:41:09;15.90;99.90
23259;DHT22;11798;51.528;7.240;2022-09-09T05:43:36;15.90;99.90
23259;DHT22;11798;51.528;7.240;2022-09-09T05:46:10;15.80;99.90
23259;DHT22;11798;51.528;7.240;2022-09-09T05:48:44;15.90;99.90
23259;DHT22;11798;51.528;7.240;2022-09-09T05:51:31;15.90;99.90
23259;DHT22;11798;51.528;7.240;2022-09-09T05:53:57;15.90;99.90
23259;DHT22;11798;51.528;7.240;2022-09-09T05:56:27;16.00;99.90
23259;DHT22;11798;51.528;7.240;2022-09-09T05:58:54;16.10;99.90
23259;DHT22;11798;51.528;7.240;2022-09-09T06:01:26;16.10;99.90
23259;DHT22;11798;51.528;7.240;2022-09-09T06:03:52;16.10;99.90
23259;DHT22;11798;51.528;7.240;2022-09-09T06:06:20;16.10;99.90
23259;DHT22;11798;51.528;7.240;2022-09-09T06:08:46;16.20;99.90
23259;DHT22;11798;51.528;7.240;2022-09-09T06:11:27;16.20;99.90
23259;DHT22;11798;51.528;7.240;2022-09-09T06:13:53;16.20;99.90
23259;DHT22;11798;51.528;7.240;2022-09-09T06:16:22;16.30;99.90
23259;DHT22;11798;51.528;7.240;2022-09-09T06:18:52;16.30;99.90
23259;DHT22;11798;51.528;7.240;2022-09-09T06:23:49;16.30;99.90
23259;DHT22;11798;51.528;7.240;2022-09-09T06:26:29;16.30;99.90
23259;DHT22;11798;51.528;7.240;2022-09-09T06:28:56;16.30;99.90
23259;DHT22;11798;51.528;7.240;2022-09-09T06:31:27;16.40;99.90
23259;DHT22;11798;51.528;7.240;2022-09-09T06:33:56;16.40;99.90
23259;DHT22;11798;51.528;7.240;2022-09-09T06:36:33;16.50;99.90
23259;DHT22;11798;51.528;7.240;2022-09-09T06:38:59;16.60;99.90
23259;DHT22;11798;51.528;7.240;2022-09-09T06:41:28;16.50;99.90
23259;DHT22;11798;51.528;7.240;2022-09-09T06:43:55;16.60;99.90
23259;DHT22;11798;51.528;7.240;2022-09-09T06:46:28;16.60;99.90
23259;DHT22;11798;51.528;7.240;2022-09-09T06:48:55;16.60;99.90
23259;DHT22;11798;51.528;7.240;2022-09-09T06:51:23;16.60;99.90
23259;DHT22;11798;51.528;7.240;2022-09-09T06:53:54;16.60;99.90
23259;DHT22;11798;51.528;7.240;2022-09-09T06:56:28;16.70;99.90
23259;DHT22;11798;51.528;7.240;2022-09-09T06:58:59;16.70;99.90
23259;DHT22;11798;51.528;7.240;2022-09-09T07:01:28;16.70;99.90
23259;DHT22;11798;51.528;7.240;2022-09-09T07:03:55;16.80;99.90
23259;DHT22;11798;51.528;7.240;2022-09-09T07:06:23;16.90;99.90
23259;DHT22;11798;51.528;7.240;2022-09-09T07:08:54;17.00;99.90
23259;DHT22;11798;51.528;7.240;2022-09-09T07:11:22;17.10;99.90
23259;DHT22;11798;51.528;7.240;2022-09-09T07:13:48;17.10;99.90
23259;DHT22;11798;51.528;7.240;2022-09-09T07:16:16;17.10;99.90
23259;DHT22;11798;51.528;7.240;2022-09-09T07:18:43;17.10;99.90
23259;DHT22;11798;51.528;7.240;2022-09-09T07:21:13;17.20;99.90
23259;DHT22;11798;51.528;7.240;2022-09-09T07:23:39;17.30;99.90
23259;DHT22;11798;51.528;7.240;2022-09-09T07:26:09;17.30;99.90
23259;DHT22;11798;51.528;7.240;2022-09-09T07:28:36;17.50;99.90
23259;DHT22;11798;51.528;7.240;2022-09-09T07:31:02;17.50;99.90
23259;DHT22;11798;51.528;7.240;2022-09-09T07:33:29;17.50;99.90
23259;DHT22;11798;51.528;7.240;2022-09-09T07:36:04;17.60;99.90
23259;DHT22;11798;51.528;7.240;2022-09-09T07:38:29;17.80;99.90
23259;DHT22;11798;51.528;7.240;2022-09-09T07:41:10;17.80;99.90
23259;DHT22;11798;51.528;7.240;2022-09-09T07:43:43;17.90;99.90
23259;DHT22;11798;51.528;7.240;2022-09-09T07:46:10;17.80;99.90
23259;DHT22;11798;51.528;7.240;2022-09-09T07:48:38;17.80;99.90
23259;DHT22;11798;51.528;7.240;2022-09-09T07:51:09;17.80;99.90
23259;DHT22;11798;51.528;7.240;2022-09-09T07:53:36;17.90;99.90
23259;DHT22;11798;51.528;7.240;2022-09-09T07:56:08;17.80;99.90
23259;DHT22;11798;51.528;7.240;2022-09-09T07:58:38;17.80;99.90
23259;DHT22;11798;51.528;7.240;2022-09-09T08:01:15;17.90;99.90
23259;DHT22;11798;51.528;7.240;2022-09-09T08:06:10;17.90;99.90
23259;DHT22;11798;51.528;7.240;2022-09-09T08:08:36;17.90;99.90
23259;DHT22;11798;51.528;7.240;2022-09-09T08:11:11;17.90;99.90
23259;DHT22;11798;51.528;7.240;2022-09-09T08:13:38;18.00;99.90
23259;DHT22;11798;51.528;7.240;2022-09-09T08:16:25;18.20;99.90
23259;DHT22;11798;51.528;7.240;2022-09-09T08:18:52;18.30;99.90
23259;DHT22;11798;51.528;7.240;2022-09-09T08:21:21;18.30;99.90
23259;DHT22;11798;51.528;7.240;2022-09-09T08:23:47;18.40;99.90
23259;DHT22;11798;51.528;7.240;2022-09-09T08:26:18;18.40;99.90
23259;DHT22;11798;51.528;7.240;2022-09-09T08:28:48;18.50;99.90
23259;DHT22;11798;51.528;7.240;2022-09-09T08:31:26;18.50;99.90
23259;DHT22;11798;51.528;7.240;2022-09-09T08:33:54;18.60;99.90
23259;DHT22;11798;51.528;7.240;2022-09-09T08:36:21;18.50;99.90
23259;DHT22;11798;51.528;7.240;2022-09-09T08:38:52;18.60;99.90
23259;DHT22;11798;51.528;7.240;2022-09-09T08:52:30;18.50;99.90
23259;DHT22;11798;51.528;7.240;2022-09-09T08:55:57;18.50;99.90
23259;DHT22;11798;51.528;7.240;2022-09-09T08:58:08;18.70;99.90
23259;DHT22;11798;51.528;7.240;2022-09-09T09:09:06;19.30;99.90
23259;DHT22;11798;51.528;7.240;2022-09-09T09:11:36;19.50;99.90
23259;DHT22;11798;51.528;7.240;2022-09-09T09:16:48;19.50;99.90
23259;DHT22;11798;51.528;7.240;2022-09-09T09:19:16;19.50;99.90
23259;DHT22;11798;51.528;7.240;2022-09-09T09:22:06;19.60;99.90
23259;DHT22;11798;51.528;7.240;2022-09-09T09:24:49;19.90;99.90
23259;DHT22;11798;51.528;7.240;2022-09-09T09:27:28;19.80;99.90
23259;DHT22;11798;51.528;7.240;2022-09-09T09:29:56;19.70;99.90
23259;DHT22;11798;51.528;7.240;2022-09-09T09:32:24;19.70;99.90
23259;DHT22;11798;51.528;7.240;2022-09-09T09:34:55;19.80;99.90
23259;DHT22;11798;51.528;7.240;2022-09-09T09:37:32;19.70;99.90
23259;DHT22;11798;51.528;7.240;2022-09-09T09:40:16;19.80;99.90
23259;DHT22;11798;51.528;7.240;2022-09-09T09:42:56;19.80;99.90
23259;DHT22;11798;51.528;7.240;2022-09-09T09:48:09;19.80;99.90
23259;DHT22;11798;51.528;7.240;2022-09-09T09:50:35;19.90;99.90
23259;DHT22;11798;51.528;7.240;2022-09-09T09:53:03;20.10;99.90
23259;DHT22;11798;51.528;7.240;2022-09-09T09:55:31;20.10;99.90
23259;DHT22;11798;51.528;7.240;2022-09-09T09:58:05;20.10;99.90
23259;DHT22;11798;51.528;7.240;2022-09-09T10:00:32;20.20;99.90
23259;DHT22;11798;51.528;7.240;2022-09-09T10:03:00;20.20;99.90
23259;DHT22;11798;51.528;7.240;2022-09-09T10:05:30;20.40;99.90
23259;DHT22;11798;51.528;7.240;2022-09-09T10:08:16;20.40;99.90
23259;DHT22;11798;51.528;7.240;2022-09-09T10:16:25;20.60;99.90
23259;DHT22;11798;51.528;7.240;2022-09-09T10:19:00;20.40;99.90
23259;DHT22;11798;51.528;7.240;2022-09-09T10:26:58;20.60;99.90
23259;DHT22;11798;51.528;7.240;2022-09-09T10:32:11;20.60;99.90
23259;DHT22;11798;51.528;7.240;2022-09-09T10:34:56;20.60;99.90
23259;DHT22;11798;51.528;7.240;2022-09-09T10:40:31;20.70;99.90
23259;DHT22;11798;51.528;7.240;2022-09-09T10:56:56;20.10;99.90
23259;DHT22;11798;51.528;7.240;2022-09-09T10:59:27;20.10;99.90
23259;DHT22;11798;51.528;7.240;2022-09-09T11:02:05;20.30;99.90
23259;DHT22;11798;51.528;7.240;2022-09-09T11:04:51;20.30;99.90
23259;DHT22;11798;51.528;7.240;2022-09-09T11:07:40;20.50;99.90
23259;DHT22;11798;51.528;7.240;2022-09-09T11:10:27;20.70;99.90
23259;DHT22;11798;51.528;7.240;2022-09-09T11:13:00;20.60;99.90
23259;DHT22;11798;51.528;7.240;2022-09-09T11:15:43;20.70;99.90
23259;DHT22;11798;51.528;7.240;2022-09-09T11:18:14;20.80;99.90
23259;DHT22;11798;51.528;7.240;2022-09-09T11:20:41;20.70;99.90
23259;DHT22;11798;51.528;7.240;2022-09-09T11:23:18;20.60;99.90
23259;DHT22;11798;51.528;7.240;2022-09-09T11:25:55;20.70;99.90
23259;DHT22;11798;51.528;7.240;2022-09-09T11:33:58;20.50;99.90
23259;DHT22;11798;51.528;7.240;2022-09-09T11:41:38;20.70;99.90
23259;DHT22;11798;51.528;7.240;2022-09-09T11:44:19;20.60;99.90
23259;DHT22;11798;51.528;7.240;2022-09-09T11:46:51;20.90;99.90
23259;DHT22;11798;51.528;7.240;2022-09-09T11:49:29;21.20;99.90
23259;DHT22;11798;51.528;7.240;2022-09-09T11:51:57;21.20;99.90
23259;DHT22;11798;51.528;7.240;2022-09-09T11:54:32;21.20;99.90
23259;DHT22;11798;51.528;7.240;2022-09-09T11:56:58;21.20;99.90
23259;DHT22;11798;51.528;7.240;2022-09-09T11:59:27;21.20;99.90
23259;DHT22;11798;51.528;7.240;2022-09-09T12:02:03;20.90;99.90
23259;DHT22;11798;51.528;7.240;2022-09-09T12:04:40;21.10;99.90
23259;DHT22;11798;51.528;7.240;2022-09-09T12:17:21;21.20;99.90
23259;DHT22;11798;51.528;7.240;2022-09-09T12:19:48;21.10;99.90
23259;DHT22;11798;51.528;7.240;2022-09-09T12:23:10;20.90;99.90
23259;DHT22;11798;51.528;7.240;2022-09-09T12:28:47;20.40;99.90
23259;DHT22;11798;51.528;7.240;2022-09-09T12:33:50;20.50;99.90
23259;DHT22;11798;51.528;7.240;2022-09-09T12:36:29;20.50;99.90
23259;DHT22;11798;51.528;7.240;2022-09-09T12:38:59;20.50;99.90
23259;DHT22;11798;51.528;7.240;2022-09-09T12:41:35;20.70;99.90
23259;DHT22;11798;51.528;7.240;2022-09-09T12:44:06;20.80;99.90
23259;DHT22;11798;51.528;7.240;2022-09-09T12:46:38;20.80;99.90
23259;DHT22;11798;51.528;7.240;2022-09-09T12:49:18;20.80;99.90
23259;DHT22;11798;51.528;7.240;2022-09-09T12:51:47;20.70;99.90
23259;DHT22;11798;51.528;7.240;2022-09-09T12:54:13;20.60;99.90
23259;DHT22;11798;51.528;7.240;2022-09-09T12:56:45;20.50;99.90
23259;DHT22;11798;51.528;7.240;2022-09-09T12:59:43;20.40;99.90
23259;DHT22;11798;51.528;7.240;2022-09-09T13:02:36;20.50;99.90
23259;DHT22;11798;51.528;7.240;2022-09-09T13:05:16;20.80;99.90
23259;DHT22;11798;51.528;7.240;2022-09-09T13:07:42;20.70;99.90
23259;DHT22;11798;51.528;7.240;2022-09-09T13:10:11;20.70;99.90
23259;DHT22;11798;51.528;7.240;2022-09-09T13:12:37;20.40;99.90
23259;DHT22;11798;51.528;7.240;2022-09-09T13:15:03;20.50;99.90
23259;DHT22;11798;51.528;7.240;2022-09-09T13:17:29;20.60;99.90
23259;DHT22;11798;51.528;7.240;2022-09-09T13:19:55;20.60;99.90
23259;DHT22;11798;51.528;7.240;2022-09-09T13:22:35;20.50;99.90
23259;DHT22;11798;51.528;7.240;2022-09-09T13:27:56;20.40;99.90
23259;DHT22;11798;51.528;7.240;2022-09-09T13:35:57;20.20;99.90
23259;DHT22;11798;51.528;7.240;2022-09-09T13:38:22;20.00;99.90
23259;DHT22;11798;51.528;7.240;2022-09-09T13:40:57;19.90;99.90
23259;DHT22;11798;51.528;7.240;2022-09-09T13:43:26;19.90;99.90
23259;DHT22;11798;51.528;7.240;2022-09-09T13:46:04;20.00;99.90
23259;DHT22;11798;51.528;7.240;2022-09-09T13:48:30;19.80;99.90
23259;DHT22;11798;51.528;7.240;2022-09-09T13:51:04;19.70;99.90
23259;DHT22;11798;51.528;7.240;2022-09-09T13:53:31;19.70;99.90
23259;DHT22;11798;51.528;7.240;2022-09-09T13:55:57;19.60;99.90
23259;DHT22;11798;51.528;7.240;2022-09-09T13:58:24;19.40;99.90
23259;DHT22;11798;51.528;7.240;2022-09-09T14:00:51;19.10;99.90
23259;DHT22;11798;51.528;7.240;2022-09-09T14:03:17;18.90;99.90
23259;DHT22;11798;51.528;7.240;2022-09-09T14:05:44;18.80;99.90
23259;DHT22;11798;51.528;7.240;2022-09-09T14:08:20;18.80;99.90
23259;DHT22;11798;51.528;7.240;2022-09-09T14:10:47;18.60;99.90
23259;DHT22;11798;51.528;7.240;2022-09-09T14:13:12;18.70;99.90
23259;DHT22;11798;51.528;7.240;2022-09-09T14:15:38;18.80;99.90
23259;DHT22;11798;51.528;7.240;2022-09-09T14:18:04;18.80;99.90
23259;DHT22;11798;51.528;7.240;2022-09-09T14:20:30;18.90;99.90
23259;DHT22;11798;51.528;7.240;2022-09-09T14:22:56;19.00;99.90
23259;DHT22;11798;51.528;7.240;2022-09-09T14:25:23;19.10;99.90
23259;DHT22;11798;51.528;7.240;2022-09-09T14:27:49;19.30;99.90
23259;DHT22;11798;51.528;7.240;2022-09-09T14:30:16;19.40;99.90
23259;DHT22;11798;51.528;7.240;2022-09-09T14:32:42;19.40;99.90
23259;DHT22;11798;51.528;7.240;2022-09-09T14:35:08;19.30;99.90
23259;DHT22;11798;51.528;7.240;2022-09-09T14:37:33;19.40;99.90
23259;DHT22;11798;51.528;7.240;2022-09-09T14:40:00;19.50;99.90
23259;DHT22;11798;51.528;7.240;2022-09-09T14:42:25;19.60;99.90
23259;DHT22;11798;51.528;7.240;2022-09-09T14:44:52;19.50;99.90
23259;DHT22;11798;51.528;7.240;2022-09-09T14:47:17;19.50;99.90
23259;DHT22;11798;51.528;7.240;2022-09-09T14:49:43;19.40;99.90
23259;DHT22;11798;51.528;7.240;2022-09-09T14:52:08;19.40;99.90
23259;DHT22;11798;51.528;7.240;2022-09-09T14:54:34;19.40;99.90
23259;DHT22;11798;51.528;7.240;2022-09-09T14:57:00;19.40;99.90
23259;DHT22;11798;51.528;7.240;2022-09-09T14:59:25;19.40;99.90
23259;DHT22;11798;51.528;7.240;2022-09-09T15:01:52;19.50;99.90
23259;DHT22;11798;51.528;7.240;2022-09-09T15:04:18;19.70;99.90
23259;DHT22;11798;51.528;7.240;2022-09-09T15:06:44;19.80;99.90
23259;DHT22;11798;51.528;7.240;2022-09-09T15:09:14;19.70;99.90
23259;DHT22;11798;51.528;7.240;2022-09-09T15:11:39;19.60;99.90
23259;DHT22;11798;51.528;7.240;2022-09-09T15:14:06;19.40;99.90
23259;DHT22;11798;51.528;7.240;2022-09-09T15:16:33;19.30;99.90
23259;DHT22;11798;51.528;7.240;2022-09-09T15:19:00;19.10;99.90
23259;DHT22;11798;51.528;7.240;2022-09-09T15:21:29;19.00;99.90
23259;DHT22;11798;51.528;7.240;2022-09-09T15:23:55;18.80;99.90
23259;DHT22;11798;51.528;7.240;2022-09-09T15:26:21;18.80;99.90
23259;DHT22;11798;51.528;7.240;2022-09-09T15:28:48;18.40;99.90
23259;DHT22;11798;51.528;7.240;2022-09-09T15:31:20;18.10;99.90
23259;DHT22;11798;51.528;7.240;2022-09-09T15:33:51;17.90;99.90
23259;DHT22;11798;51.528;7.240;2022-09-09T15:36:18;17.80;99.90
23259;DHT22;11798;51.528;7.240;2022-09-09T15:38:44;17.80;99.90
23259;DHT22;11798;51.528;7.240;2022-09-09T15:41:11;17.90;99.90
23259;DHT22;11798;51.528;7.240;2022-09-09T15:43:37;17.70;99.90
23259;DHT22;11798;51.528;7.240;2022-09-09T15:46:23;17.70;99.90
23259;DHT22;11798;51.528;7.240;2022-09-09T15:48:53;17.80;99.90
23259;DHT22;11798;51.528;7.240;2022-09-09T15:51:19;17.80;99.90
23259;DHT22;11798;51.528;7.240;2022-09-09T15:53:44;17.70;99.90
23259;DHT22;11798;51.528;7.240;2022-09-09T15:56:10;17.50;99.90
23259;DHT22;11798;51.528;7.240;2022-09-09T15:58:36;17.50;99.90
23259;DHT22;11798;51.528;7.240;2022-09-09T16:01:06;17.40;99.90
23259;DHT22;11798;51.528;7.240;2022-09-09T16:03:37;17.40;99.90
23259;DHT22;11798;51.528;7.240;2022-09-09T16:06:04;17.40;99.90
23259;DHT22;11798;51.528;7.240;2022-09-09T16:08:41;17.50;99.90
23259;DHT22;11798;51.528;7.240;2022-09-09T16:11:13;17.60;99.90
23259;DHT22;11798;51.528;7.240;2022-09-09T16:13:41;17.60;99.90
23259;DHT22;11798;51.528;7.240;2022-09-09T16:16:08;17.40;99.90
23259;DHT22;11798;51.528;7.240;2022-09-09T16:18:40;17.40;99.90
23259;DHT22;11798;51.528;7.240;2022-09-09T16:21:06;17.40;99.90
23259;DHT22;11798;51.528;7.240;2022-09-09T16:23:34;17.40;99.90
23259;DHT22;11798;51.528;7.240;2022-09-09T16:26:00;17.50;99.90
23259;DHT22;11798;51.528;7.240;2022-09-09T16:28:25;17.50;99.90
23259;DHT22;11798;51.528;7.240;2022-09-09T16:30:51;17.50;99.90
23259;DHT22;11798;51.528;7.240;2022-09-09T16:33:17;17.60;99.90
23259;DHT22;11798;51.528;7.240;2022-09-09T16:35:43;17.60;99.90
23259;DHT22;11798;51.528;7.240;2022-09-09T16:38:09;17.70;99.90
23259;DHT22;11798;51.528;7.240;2022-09-09T16:40:36;17.60;99.90
23259;DHT22;11798;51.528;7.240;2022-09-09T16:43:05;17.70;99.90
23259;DHT22;11798;51.528;7.240;2022-09-09T16:45:32;17.60;99.90
23259;DHT22;11798;51.528;7.240;2022-09-09T16:47:58;17.60;99.90
23259;DHT22;11798;51.528;7.240;2022-09-09T16:50:24;17.50;99.90
23259;DHT22;11798;51.528;7.240;2022-09-09T16:52:51;17.40;99.90
23259;DHT22;11798;51.528;7.240;2022-09-09T16:55:17;17.30;99.90
23259;DHT22;11798;51.528;7.240;2022-09-09T16:57:46;17.20;99.90
23259;DHT22;11798;51.528;7.240;2022-09-09T17:00:14;17.20;99.90
23259;DHT22;11798;51.528;7.240;2022-09-09T17:02:42;17.20;99.90
23259;DHT22;11798;51.528;7.240;2022-09-09T17:05:08;17.30;99.90
23259;DHT22;11798;51.528;7.240;2022-09-09T17:07:34;17.20;99.90
23259;DHT22;11798;51.528;7.240;2022-09-09T17:10:01;17.20;99.90
23259;DHT22;11798;51.528;7.240;2022-09-09T17:12:26;17.10;99.90
23259;DHT22;11798;51.528;7.240;2022-09-09T17:14:52;17.00;99.90
23259;DHT22;11798;51.528;7.240;2022-09-09T17:17:17;16.90;99.90
23259;DHT22;11798;51.528;7.240;2022-09-09T17:19:43;16.90;99.90
23259;DHT22;11798;51.528;7.240;2022-09-09T17:22:09;16.80;99.90
23259;DHT22;11798;51.528;7.240;2022-09-09T17:24:35;16.70;99.90
23259;DHT22;11798;51.528;7.240;2022-09-09T17:27:03;16.70;99.90
23259;DHT22;11798;51.528;7.240;2022-09-09T17:29:29;16.70;99.90
23259;DHT22;11798;51.528;7.240;2022-09-09T17:31:55;16.70;99.90
23259;DHT22;11798;51.528;7.240;2022-09-09T17:34:20;16.60;99.90
23259;DHT22;11798;51.528;7.240;2022-09-09T17:36:46;16.60;99.90
23259;DHT22;11798;51.528;7.240;2022-09-09T17:39:12;16.60;99.90
23259;DHT22;11798;51.528;7.240;2022-09-09T17:41:39;16.50;99.90
23259;DHT22;11798;51.528;7.240;2022-09-09T17:44:06;16.50;99.90
23259;DHT22;11798;51.528;7.240;2022-09-09T17:46:34;16.60;99.90
23259;DHT22;11798;51.528;7.240;2022-09-09T17:49:03;16.50;99.90
23259;DHT22;11798;51.528;7.240;2022-09-09T17:51:31;16.60;99.90
23259;DHT22;11798;51.528;7.240;2022-09-09T17:54:02;16.50;99.90
23259;DHT22;11798;51.528;7.240;2022-09-09T17:56:30;16.50;99.90
23259;DHT22;11798;51.528;7.240;2022-09-09T17:58:57;16.50;99.90
23259;DHT22;11798;51.528;7.240;2022-09-09T18:01:26;16.40;99.90
23259;DHT22;11798;51.528;7.240;2022-09-09T18:03:54;16.50;99.90
23259;DHT22;11798;51.528;7.240;2022-09-09T18:06:23;16.40;99.90
23259;DHT22;11798;51.528;7.240;2022-09-09T18:08:56;16.40;99.90
23259;DHT22;11798;51.528;7.240;2022-09-09T18:11:26;16.40;99.90